createdAt,value
2019-03-09T00:00:33.694Z,86.10
2019-03-09T00:03:02.388Z,86.40
2019-03-09T00:05:31.085Z,86.30
2019-03-09T00:08:00.354Z,86.50
2019-03-09T00:10:29.525Z,85.80
2019-03-09T00:12:58.409Z,85.90
2019-03-09T00:15:27.746Z,85.30
2019-03-09T00:17:56.414Z,85.20
2019-03-09T00:20:25.095Z,85.10
2019-03-09T00:23:01.052Z,86.30
2019-03-09T00:25:33.984Z,86.50
2019-03-09T00:28:20.742Z,85.10
2019-03-09T00:30:58.606Z,85.10
2019-03-09T00:33:30.462Z,85.30
2019-03-09T00:35:59.170Z,85.40
2019-03-09T00:38:28.458Z,85.50
2019-03-09T00:40:57.301Z,85.40
2019-03-09T00:43:25.960Z,85.40
2019-03-09T00:45:54.946Z,85.50
2019-03-09T00:48:24.331Z,85.50
2019-03-09T00:50:52.982Z,85.50
2019-03-09T00:53:21.713Z,85.70
2019-03-09T00:55:50.394Z,85.40
2019-03-09T00:58:19.119Z,85.40
2019-03-09T01:00:48.029Z,86.00
2019-03-09T01:03:16.855Z,85.40
2019-03-09T01:05:45.686Z,86.00
2019-03-09T01:08:14.365Z,86.20
2019-03-09T01:10:43.411Z,85.20
2019-03-09T01:13:12.146Z,85.70
2019-03-09T01:15:40.906Z,85.20
2019-03-09T01:18:10.679Z,85.00
2019-03-09T01:20:39.366Z,85.40
2019-03-09T01:23:08.088Z,85.40
2019-03-09T01:25:37.079Z,85.70
2019-03-09T01:28:05.898Z,85.70
2019-03-09T01:30:34.713Z,86.20
2019-03-09T01:33:03.520Z,85.80
2019-03-09T01:35:32.214Z,86.20
2019-03-09T01:38:01.102Z,86.40
2019-03-09T01:40:30.249Z,86.10
2019-03-09T01:42:58.916Z,86.40
2019-03-09T01:45:27.642Z,86.70
2019-03-09T01:47:56.429Z,86.50
2019-03-09T01:50:25.178Z,87.50
2019-03-09T01:52:54.200Z,87.80
2019-03-09T01:55:23.123Z,87.90
2019-03-09T01:57:52.118Z,88.00
2019-03-09T02:00:21.437Z,87.90
2019-03-09T02:02:50.901Z,88.40
2019-03-09T02:05:20.175Z,88.10
2019-03-09T02:07:49.416Z,87.90
2019-03-09T02:10:18.691Z,88.00
2019-03-09T02:12:47.457Z,88.10
2019-03-09T02:15:16.504Z,88.10
2019-03-09T02:17:45.607Z,88.70
2019-03-09T02:20:14.856Z,88.50
2019-03-09T02:22:44.185Z,88.80
2019-03-09T02:25:13.641Z,88.70
2019-03-09T02:27:42.301Z,88.40
2019-03-09T02:30:11.582Z,88.50
2019-03-09T02:32:40.590Z,88.70
2019-03-09T02:35:09.830Z,88.30
2019-03-09T02:37:38.699Z,88.50
2019-03-09T02:40:12.542Z,88.60
2019-03-09T02:42:41.462Z,88.50
2019-03-09T02:45:12.155Z,88.50
2019-03-09T02:47:41.334Z,88.60
2019-03-09T02:50:11.458Z,88.50
2019-03-09T02:52:40.356Z,88.40
2019-03-09T02:55:12.294Z,89.20
2019-03-09T02:57:41.022Z,88.40
2019-03-09T03:00:12.863Z,88.70
2019-03-09T03:02:47.949Z,88.70
2019-03-09T03:05:19.651Z,88.60
2019-03-09T03:07:48.391Z,88.70
2019-03-09T03:10:17.243Z,88.70
2019-03-09T03:12:45.989Z,88.50
2019-03-09T03:15:28.390Z,88.60
2019-03-09T03:17:57.437Z,88.70
2019-03-09T03:20:26.171Z,88.70
2019-03-09T03:22:54.876Z,88.80
2019-03-09T03:25:23.866Z,88.70
2019-03-09T03:27:52.527Z,88.80
2019-03-09T03:30:21.570Z,88.70
2019-03-09T03:32:51.543Z,88.80
2019-03-09T03:35:20.185Z,89.00
2019-03-09T03:37:49.444Z,89.00
2019-03-09T03:40:18.261Z,89.40
2019-03-09T03:42:49.887Z,89.60
2019-03-09T03:45:19.584Z,89.80
2019-03-09T03:47:48.347Z,89.80
2019-03-09T03:50:17.114Z,90.00
2019-03-09T03:52:46.035Z,90.00
2019-03-09T03:55:14.677Z,90.10
2019-03-09T03:57:44.284Z,90.10
2019-03-09T04:00:13.689Z,90.30
2019-03-09T04:02:43.395Z,90.40
2019-03-09T04:05:12.501Z,90.80
2019-03-09T04:07:41.943Z,90.70
2019-03-09T04:10:10.960Z,90.80
2019-03-09T04:12:40.145Z,90.80
2019-03-09T04:15:09.281Z,90.70
2019-03-09T04:17:38.485Z,90.80
2019-03-09T04:20:07.455Z,90.70
2019-03-09T04:22:36.546Z,90.70
2019-03-09T04:25:05.436Z,90.60
2019-03-09T04:27:34.151Z,91.00
2019-03-09T04:30:03.427Z,90.50
2019-03-09T04:32:32.611Z,90.50
2019-03-09T04:35:01.411Z,90.30
2019-03-09T04:37:30.159Z,90.20
2019-03-09T04:39:58.856Z,90.40
2019-03-09T04:42:28.061Z,90.30
2019-03-09T04:44:56.814Z,90.00
2019-03-09T04:47:25.709Z,90.00
2019-03-09T04:49:54.622Z,90.00
2019-03-09T04:52:23.973Z,90.00
2019-03-09T04:54:52.662Z,89.30
2019-03-09T04:57:21.325Z,89.30
2019-03-09T04:59:50.365Z,89.30
2019-03-09T05:02:19.042Z,89.10
2019-03-09T05:04:51.911Z,89.40
2019-03-09T05:07:39.361Z,89.70
2019-03-09T05:10:26.525Z,90.00
2019-03-09T05:12:59.113Z,90.10
2019-03-09T05:15:28.045Z,90.70
2019-03-09T05:17:56.709Z,90.50
2019-03-09T05:20:25.405Z,90.80
2019-03-09T05:22:54.305Z,91.00
2019-03-09T05:25:22.992Z,90.80
2019-03-09T05:27:51.770Z,90.60
2019-03-09T05:30:39.792Z,90.70
2019-03-09T05:33:08.761Z,90.70
2019-03-09T05:35:37.802Z,90.80
2019-03-09T05:38:06.729Z,90.90
2019-03-09T05:40:35.776Z,91.00
2019-03-09T05:43:04.677Z,91.10
2019-03-09T05:45:33.754Z,91.10
2019-03-09T05:48:02.781Z,91.10
2019-03-09T05:50:31.616Z,91.30
2019-03-09T05:53:12.144Z,91.30
2019-03-09T05:55:40.981Z,91.30
2019-03-09T05:58:09.896Z,91.60
2019-03-09T06:00:39.768Z,91.70
2019-03-09T06:03:08.477Z,92.10
2019-03-09T06:05:42.177Z,92.30
2019-03-09T06:08:10.954Z,92.50
2019-03-09T06:10:40.086Z,92.90
2019-03-09T06:13:08.967Z,93.10
2019-03-09T06:15:38.917Z,93.10
2019-03-09T06:18:07.898Z,93.40
2019-03-09T06:20:36.816Z,93.60
2019-03-09T06:23:05.973Z,93.50
2019-03-09T06:25:34.718Z,93.80
2019-03-09T06:28:03.530Z,94.20
2019-03-09T06:30:32.301Z,94.00
2019-03-09T06:33:20.951Z,94.10
2019-03-09T06:35:55.373Z,94.30
2019-03-09T06:38:54.761Z,94.40
2019-03-09T06:41:28.401Z,94.50
2019-03-09T06:43:57.291Z,94.60
2019-03-09T06:46:26.085Z,94.60
2019-03-09T06:48:54.912Z,94.70
2019-03-09T06:51:23.583Z,94.50
2019-03-09T06:53:52.830Z,94.70
2019-03-09T06:56:21.595Z,94.80
2019-03-09T06:58:50.447Z,94.90
2019-03-09T07:01:20.859Z,94.80
2019-03-09T07:03:49.983Z,94.70
2019-03-09T07:06:18.829Z,94.70
2019-03-09T07:08:47.569Z,94.90
2019-03-09T07:11:16.305Z,94.80
2019-03-09T07:13:52.469Z,94.60
2019-03-09T07:16:15.841Z,94.80
2019-03-09T07:18:44.669Z,94.60
2019-03-09T07:21:13.405Z,94.70
2019-03-09T07:23:42.077Z,94.70
2019-03-09T07:26:10.874Z,94.60
2019-03-09T07:28:39.911Z,94.40
2019-03-09T07:31:10.822Z,94.40
2019-03-09T07:33:41.904Z,94.20
2019-03-09T07:36:10.580Z,94.30
2019-03-09T07:38:39.226Z,94.60
2019-03-09T07:41:08.210Z,94.20
2019-03-09T07:43:36.905Z,94.10
2019-03-09T07:46:05.598Z,94.10
2019-03-09T07:48:34.663Z,94.00
2019-03-09T07:51:03.414Z,94.10
2019-03-09T07:53:32.261Z,94.10
2019-03-09T07:56:01.467Z,93.80
2019-03-09T07:58:30.148Z,93.70
2019-03-09T08:00:58.813Z,93.50
2019-03-09T08:03:27.936Z,93.10
2019-03-09T08:05:56.755Z,93.30
2019-03-09T08:08:25.408Z,93.00
2019-03-09T08:10:54.174Z,93.00
2019-03-09T08:13:22.880Z,93.00
2019-03-09T08:15:51.959Z,92.90
2019-03-09T08:18:20.829Z,92.80
2019-03-09T08:20:52.649Z,93.10
2019-03-09T08:23:21.329Z,92.80
2019-03-09T08:25:51.491Z,92.60
2019-03-09T08:28:20.532Z,92.70
2019-03-09T08:30:49.278Z,92.20
2019-03-09T08:33:18.089Z,92.50
2019-03-09T08:35:46.888Z,92.90
2019-03-09T08:38:15.551Z,93.30
2019-03-09T08:40:44.648Z,93.50
2019-03-09T08:43:13.360Z,93.80
2019-03-09T08:45:42.075Z,94.00
2019-03-09T08:48:11.395Z,94.10
2019-03-09T08:50:40.299Z,94.10
2019-03-09T08:53:09.023Z,94.20
2019-03-09T08:55:38.562Z,94.30
2019-03-09T08:58:08.007Z,94.70
2019-03-09T09:00:36.863Z,94.40
2019-03-09T09:03:05.798Z,93.20
2019-03-09T09:05:36.048Z,85.10
2019-03-09T09:08:04.709Z,81.00
2019-03-09T09:10:33.784Z,72.70
2019-03-09T09:13:02.505Z,67.90
2019-03-09T09:15:31.472Z,65.90
2019-03-09T09:18:00.645Z,65.70
2019-03-09T09:20:29.321Z,63.50
2019-03-09T09:22:58.006Z,60.70
2019-03-09T09:25:26.717Z,55.90
2019-03-09T09:27:55.398Z,57.10
2019-03-09T09:30:25.627Z,55.70
2019-03-09T09:32:54.456Z,54.40
2019-03-09T09:35:23.413Z,55.70
2019-03-09T09:37:52.338Z,58.00
2019-03-09T09:40:21.956Z,59.80
2019-03-09T09:42:51.092Z,60.70
2019-03-09T09:45:20.254Z,61.40
2019-03-09T09:47:48.946Z,61.70
2019-03-09T09:50:17.893Z,64.00
2019-03-09T09:52:46.812Z,60.70
2019-03-09T09:55:16.817Z,56.40
2019-03-09T09:57:45.739Z,55.20
2019-03-09T10:00:16.978Z,55.50
2019-03-09T10:02:46.306Z,53.10
2019-03-09T10:05:15.318Z,51.00
2019-03-09T10:07:44.126Z,48.30
2019-03-09T10:10:14.668Z,47.30
2019-03-09T10:12:43.361Z,45.30
2019-03-09T10:15:14.569Z,44.40
2019-03-09T10:17:43.490Z,44.00
2019-03-09T10:20:12.302Z,42.40
2019-03-09T10:22:41.218Z,41.00
2019-03-09T10:25:10.351Z,42.30
2019-03-09T10:27:39.081Z,46.20
2019-03-09T10:30:09.214Z,49.80
2019-03-09T10:32:38.457Z,53.20
2019-03-09T10:35:07.897Z,55.00
2019-03-09T10:37:37.070Z,55.50
2019-03-09T10:40:06.430Z,55.80
2019-03-09T10:42:35.084Z,57.00
2019-03-09T10:45:04.487Z,56.70
2019-03-09T10:47:33.250Z,56.60
2019-03-09T10:50:01.910Z,57.70
2019-03-09T10:52:30.586Z,58.80
2019-03-09T10:54:59.329Z,59.10
2019-03-09T10:57:28.014Z,60.30
2019-03-09T10:59:56.685Z,60.30
2019-03-09T11:02:26.319Z,60.70
2019-03-09T11:04:55.257Z,60.10
2019-03-09T11:07:23.998Z,60.40
2019-03-09T11:09:52.769Z,61.20
2019-03-09T11:12:21.727Z,60.80
2019-03-09T11:14:50.927Z,60.20
2019-03-09T11:17:19.784Z,61.40
2019-03-09T11:19:48.691Z,62.00
2019-03-09T11:22:17.361Z,62.90
2019-03-09T11:24:46.389Z,63.70
2019-03-09T11:27:15.281Z,64.10
2019-03-09T11:29:43.990Z,64.80
2019-03-09T11:32:12.764Z,64.10
2019-03-09T11:34:41.759Z,62.80
2019-03-09T11:37:10.427Z,63.10
2019-03-09T11:39:39.455Z,62.60
2019-03-09T11:42:08.368Z,62.30
2019-03-09T11:44:37.032Z,62.00
2019-03-09T11:47:05.809Z,61.40
2019-03-09T11:49:34.484Z,60.70
2019-03-09T11:52:03.329Z,60.50
2019-03-09T11:54:32.326Z,59.80
2019-03-09T11:57:00.988Z,58.30
2019-03-09T11:59:29.649Z,57.60
2019-03-09T12:01:58.349Z,58.60
2019-03-09T12:04:27.217Z,59.00
2019-03-09T12:06:55.934Z,58.90
2019-03-09T12:09:25.941Z,58.90
2019-03-09T12:12:00.325Z,58.60
2019-03-09T12:14:29.344Z,57.10
2019-03-09T12:16:58.653Z,56.00
2019-03-09T12:19:27.617Z,56.70
2019-03-09T12:21:57.033Z,56.00
2019-03-09T12:24:26.508Z,55.50
2019-03-09T12:26:55.262Z,55.30
2019-03-09T12:29:24.206Z,55.30
2019-03-09T12:31:53.006Z,55.00
2019-03-09T12:34:21.689Z,54.40
2019-03-09T12:36:50.670Z,53.60
2019-03-09T12:39:19.452Z,54.50
2019-03-09T12:41:48.380Z,54.10
2019-03-09T12:44:17.290Z,54.30
2019-03-09T12:46:46.328Z,54.70
2019-03-09T12:49:15.031Z,54.20
2019-03-09T12:51:44.881Z,54.80
2019-03-09T12:54:14.142Z,54.90
2019-03-09T12:56:42.858Z,55.10
2019-03-09T12:59:11.773Z,55.20
2019-03-09T13:01:40.611Z,55.80
2019-03-09T13:04:12.598Z,55.80
2019-03-09T13:06:41.729Z,55.40
2019-03-09T13:09:10.962Z,56.10
2019-03-09T13:11:39.977Z,55.80
2019-03-09T13:14:08.702Z,54.70
2019-03-09T13:16:37.793Z,54.80
2019-03-09T13:19:06.689Z,55.30
2019-03-09T13:21:35.351Z,55.30
2019-03-09T13:24:04.294Z,55.70
2019-03-09T13:26:32.958Z,55.90
2019-03-09T13:29:01.670Z,55.70
2019-03-09T13:31:33.209Z,56.10
2019-03-09T13:34:01.857Z,56.10
2019-03-09T13:36:32.306Z,56.90
2019-03-09T13:39:01.151Z,57.10
2019-03-09T13:41:29.804Z,57.40
2019-03-09T13:43:58.486Z,57.70
2019-03-09T13:46:27.507Z,58.50
2019-03-09T13:48:56.171Z,58.70
2019-03-09T13:51:24.829Z,59.70
2019-03-09T13:53:53.599Z,59.90
2019-03-09T13:56:22.272Z,61.70
2019-03-09T13:58:50.963Z,61.60
2019-03-09T14:01:21.238Z,60.40
2019-03-09T14:03:49.964Z,59.80
2019-03-09T14:06:19.193Z,59.40
2019-03-09T14:08:49.437Z,59.10
2019-03-09T14:11:20.478Z,58.00
2019-03-09T14:13:49.361Z,58.80
2019-03-09T14:16:18.335Z,59.70
2019-03-09T14:18:47.006Z,60.90
2019-03-09T14:21:15.705Z,62.30
2019-03-09T14:23:44.971Z,61.50
2019-03-09T14:26:13.660Z,63.50
2019-03-09T14:28:42.661Z,65.30
2019-03-09T14:31:11.645Z,66.20
2019-03-09T14:33:40.546Z,68.50
2019-03-09T14:36:09.371Z,72.10
2019-03-09T14:38:38.154Z,73.50
2019-03-09T14:41:07.494Z,73.30
2019-03-09T14:43:36.227Z,72.60
2019-03-09T14:46:05.324Z,71.20
2019-03-09T14:48:34.065Z,69.80
2019-03-09T14:51:02.749Z,68.50
2019-03-09T14:53:31.939Z,68.50
2019-03-09T14:56:00.597Z,68.10
2019-03-09T14:58:29.775Z,69.10
2019-03-09T15:00:58.503Z,68.30
2019-03-09T15:03:27.679Z,66.90
2019-03-09T15:05:56.674Z,67.90
2019-03-09T15:08:26.176Z,68.20
2019-03-09T15:10:55.917Z,68.00
2019-03-09T15:13:24.642Z,66.70
2019-03-09T15:15:53.630Z,70.90
2019-03-09T15:18:22.403Z,74.00
2019-03-09T15:20:51.429Z,75.20
2019-03-09T15:23:20.411Z,76.00
2019-03-09T15:25:51.578Z,76.90
2019-03-09T15:28:20.274Z,77.10
2019-03-09T15:30:49.395Z,77.20
2019-03-09T15:33:18.139Z,76.00
2019-03-09T15:35:47.114Z,75.80
2019-03-09T15:38:15.924Z,74.80
2019-03-09T15:40:44.674Z,75.40
2019-03-09T15:43:15.172Z,74.40
2019-03-09T15:45:44.486Z,74.70
2019-03-09T15:48:13.232Z,74.30
2019-03-09T15:50:42.013Z,75.30
2019-03-09T15:53:12.250Z,75.20
2019-03-09T15:55:42.025Z,75.60
2019-03-09T15:58:10.992Z,75.70
2019-03-09T16:00:39.829Z,73.60
2019-03-09T16:03:08.513Z,74.00
2019-03-09T16:05:37.458Z,76.60
2019-03-09T16:08:06.240Z,77.40
2019-03-09T16:10:34.930Z,78.50
2019-03-09T16:13:03.830Z,80.10
2019-03-09T16:15:32.669Z,80.20
2019-03-09T16:18:01.697Z,80.40
2019-03-09T16:20:30.606Z,82.50
2019-03-09T16:22:59.593Z,85.60
2019-03-09T16:25:29.134Z,87.60
2019-03-09T16:27:57.900Z,89.50
2019-03-09T16:30:26.749Z,89.70
2019-03-09T16:32:55.469Z,90.40
2019-03-09T16:35:25.998Z,90.70
2019-03-09T16:37:54.641Z,90.90
2019-03-09T16:40:23.469Z,91.20
2019-03-09T16:42:52.145Z,91.40
2019-03-09T16:45:21.219Z,91.40
2019-03-09T16:47:49.880Z,91.20
2019-03-09T16:50:18.773Z,91.70
2019-03-09T16:52:48.067Z,91.80
2019-03-09T16:55:17.167Z,91.80
2019-03-09T16:57:49.443Z,91.50
2019-03-09T17:00:18.898Z,92.20
2019-03-09T17:02:47.918Z,92.20
2019-03-09T17:05:17.099Z,92.30
2019-03-09T17:07:46.022Z,92.60
2019-03-09T17:10:14.986Z,92.80
2019-03-09T17:12:43.637Z,92.80
2019-03-09T17:15:13.536Z,93.00
2019-03-09T17:17:42.202Z,92.70
2019-03-09T17:20:11.240Z,92.80
2019-03-09T17:22:39.931Z,93.30
2019-03-09T17:25:08.754Z,93.00
2019-03-09T17:27:37.501Z,92.70
2019-03-09T17:30:07.169Z,92.80
2019-03-09T17:32:35.876Z,93.00
2019-03-09T17:35:04.723Z,92.60
2019-03-09T17:37:33.552Z,92.80
2019-03-09T17:40:02.434Z,92.80
2019-03-09T17:42:31.305Z,93.20
2019-03-09T17:45:00.050Z,93.30
2019-03-09T17:47:29.197Z,93.40
2019-03-09T17:49:57.878Z,93.50
2019-03-09T17:52:26.657Z,94.00
2019-03-09T17:54:55.553Z,93.70
2019-03-09T17:57:25.428Z,94.00
2019-03-09T17:59:55.305Z,94.10
2019-03-09T18:02:26.762Z,94.30
2019-03-09T18:04:55.464Z,94.70
2019-03-09T18:07:24.252Z,94.50
2019-03-09T18:09:52.924Z,94.30
2019-03-09T18:12:23.449Z,94.60
2019-03-09T18:14:52.563Z,94.60
2019-03-09T18:17:21.420Z,94.60
2019-03-09T18:19:50.097Z,94.20
2019-03-09T18:22:19.097Z,94.70
2019-03-09T18:24:48.894Z,94.80
2019-03-09T18:27:17.577Z,95.00
2019-03-09T18:29:46.650Z,95.00
2019-03-09T18:32:15.557Z,95.20
2019-03-09T18:34:44.237Z,95.40
2019-03-09T18:37:13.072Z,95.20
2019-03-09T18:39:41.772Z,95.50
2019-03-09T18:42:10.474Z,95.90
2019-03-09T18:44:39.270Z,95.60
2019-03-09T18:47:07.959Z,95.60
2019-03-09T18:49:36.647Z,95.70
2019-03-09T18:52:05.520Z,95.80
2019-03-09T18:54:34.180Z,95.90
2019-03-09T18:57:02.982Z,95.80
2019-03-09T18:59:31.686Z,95.60
2019-03-09T19:02:00.375Z,95.70
2019-03-09T19:04:29.137Z,95.70
2019-03-09T19:06:58.189Z,95.80
2019-03-09T19:09:26.858Z,95.60
2019-03-09T19:11:55.529Z,95.70
2019-03-09T19:14:24.322Z,95.50
2019-03-09T19:16:53.010Z,95.40
2019-03-09T19:19:22.143Z,95.50
2019-03-09T19:21:50.940Z,95.40
2019-03-09T19:24:19.604Z,95.40
2019-03-09T19:26:48.498Z,95.60
2019-03-09T19:29:17.658Z,95.30
2019-03-09T19:31:46.354Z,95.40
2019-03-09T19:34:15.088Z,95.30
2019-03-09T19:36:44.408Z,95.40
2019-03-09T19:39:13.155Z,95.40
2019-03-09T19:41:42.962Z,95.90
2019-03-09T19:44:11.732Z,95.70
2019-03-09T19:46:40.629Z,95.90
2019-03-09T19:49:09.314Z,96.20
2019-03-09T19:51:38.365Z,95.90
2019-03-09T19:54:07.042Z,96.00
2019-03-09T19:56:35.717Z,96.20
2019-03-09T19:59:04.438Z,96.10
2019-03-09T20:01:33.122Z,96.40
2019-03-09T20:04:01.809Z,96.30
2019-03-09T20:06:30.510Z,96.30
2019-03-09T20:08:59.218Z,96.30
2019-03-09T20:11:28.206Z,96.00
2019-03-09T20:13:56.885Z,95.80
2019-03-09T20:16:25.559Z,95.80
2019-03-09T20:18:54.264Z,95.60
2019-03-09T20:21:25.150Z,96.20
2019-03-09T20:23:54.089Z,95.70
2019-03-09T20:26:23.801Z,95.50
2019-03-09T20:28:53.159Z,95.50
2019-03-09T20:31:22.041Z,95.30
2019-03-09T20:33:50.822Z,95.40
2019-03-09T20:36:19.608Z,95.30
2019-03-09T20:38:48.286Z,95.40
2019-03-09T20:41:16.968Z,95.30
2019-03-09T20:43:45.666Z,94.80
2019-03-09T20:46:14.363Z,94.60
2019-03-09T20:48:43.295Z,94.70
2019-03-09T20:51:12.391Z,93.60
2019-03-09T20:53:41.215Z,93.70
2019-03-09T20:56:09.890Z,93.10
2019-03-09T20:58:38.920Z,93.00
2019-03-09T21:01:08.331Z,92.90
2019-03-09T21:03:37.270Z,92.70
2019-03-09T21:06:06.290Z,91.80
2019-03-09T21:08:35.493Z,91.40
2019-03-09T21:11:04.531Z,91.30
2019-03-09T21:13:33.349Z,91.70
2019-03-09T21:16:02.024Z,91.80
2019-03-09T21:18:30.706Z,91.70
2019-03-09T21:21:03.047Z,91.60
2019-03-09T21:23:32.730Z,91.60
2019-03-09T21:26:01.697Z,91.00
2019-03-09T21:28:30.473Z,91.30
2019-03-09T21:30:59.165Z,91.00
2019-03-09T21:33:27.842Z,91.20
2019-03-09T21:35:57.847Z,90.30
2019-03-09T21:38:26.846Z,89.30
2019-03-09T21:40:57.214Z,88.30
2019-03-09T21:43:25.897Z,88.30
2019-03-09T21:45:54.722Z,89.60
2019-03-09T21:48:23.571Z,89.50
2019-03-09T21:50:52.594Z,89.50
2019-03-09T21:53:21.287Z,89.00
2019-03-09T21:55:50.519Z,88.60
2019-03-09T21:58:19.302Z,88.30
2019-03-09T22:00:51.125Z,88.80
2019-03-09T22:03:19.849Z,88.40
2019-03-09T22:05:48.789Z,87.90
2019-03-09T22:08:17.473Z,87.80
2019-03-09T22:10:46.397Z,88.70
2019-03-09T22:13:15.896Z,87.10
2019-03-09T22:15:44.746Z,87.80
2019-03-09T22:18:14.350Z,86.70
2019-03-09T22:20:43.190Z,86.80
2019-03-09T22:23:11.872Z,86.60
2019-03-09T22:25:40.718Z,86.70
2019-03-09T22:28:09.650Z,85.60
2019-03-09T22:30:38.834Z,85.60
2019-03-09T22:33:07.519Z,86.00
2019-03-09T22:35:36.695Z,85.30
2019-03-09T22:38:05.462Z,86.20
2019-03-09T22:40:34.162Z,86.00
2019-03-09T22:43:04.322Z,86.40
2019-03-09T22:45:33.275Z,86.40
2019-03-09T22:48:01.936Z,86.00
2019-03-09T22:50:31.485Z,86.90
2019-03-09T22:53:00.186Z,86.60
2019-03-09T22:55:29.414Z,87.10
2019-03-09T22:57:59.959Z,87.50
2019-03-09T23:00:28.761Z,87.50
2019-03-09T23:02:57.773Z,87.40
2019-03-09T23:05:26.717Z,88.80
2019-03-09T23:07:55.625Z,88.50
2019-03-09T23:10:24.355Z,88.50
2019-03-09T23:12:53.660Z,88.40
2019-03-09T23:15:22.479Z,88.30
2019-03-09T23:17:51.478Z,87.80
2019-03-09T23:20:21.145Z,88.40
2019-03-09T23:22:49.897Z,88.00
2019-03-09T23:25:18.974Z,88.20
2019-03-09T23:27:49.409Z,87.60
2019-03-09T23:30:18.255Z,88.40
2019-03-09T23:32:47.081Z,87.90
2019-03-09T23:35:17.368Z,88.00
2019-03-09T23:37:46.432Z,87.80
2019-03-09T23:40:15.431Z,87.00
2019-03-09T23:42:44.980Z,87.40
2019-03-09T23:45:14.001Z,87.00
2019-03-09T23:47:42.730Z,86.80
2019-03-09T23:50:13.231Z,87.00
2019-03-09T23:52:43.629Z,87.10
2019-03-09T23:55:21.118Z,86.90
2019-03-09T23:57:44.746Z,87.10
